Time;durP1;ratioP1;P1;durP2;ratioP2;P2;SDS_P1;SDS_P2;PMS_P1;PMS_P2;Temp;Humidity;BMP_temperature;BMP_pressure;BME280_temperature;BME280_humidity;BME280_pressure;Samples;Min_cycle;Max_cycle;Signal;HPM_P1;HPM_P2
2024/04/20 00:02:36;;;;;;;9.27;2.45;;;6.30;99.90;;;;;;5225744;27;20015;-80
2024/04/20 00:05:13;;;;;;;7.40;2.70;;;6.30;99.90;;;;;;5294702;26;20009;-80
2024/04/20 00:08:35;;;;;;;10.65;3.45;;;6.30;99.90;;;;;;5318906;26;20029;-80
2024/04/20 00:11:25;;;;;;;9.32;3.00;;;6.40;99.90;;;;;;5270035;26;20021;-80
2024/04/20 00:21:48;;;;;;;10.90;3.30;;;6.40;99.90;;;;;;5300668;26;20002;-81
2024/04/20 00:24:23;;;;;;;7.72;2.67;;;6.30;99.90;;;;;;5295596;26;20046;-81
2024/04/20 00:26:57;;;;;;;9.30;2.75;;;6.30;99.90;;;;;;5325242;26;20072;-82
2024/04/20 00:29:32;;;;;;;7.28;2.75;;;6.30;99.90;;;;;;5331977;26;20009;-81
2024/04/20 00:35:43;;;;;;;6.55;2.42;;;6.10;99.90;;;;;;5327932;26;19998;-81
2024/04/20 00:38:32;;;;;;;8.63;3.00;;;6.30;99.90;;;;;;5332437;26;20017;-81
2024/04/20 00:41:15;;;;;;;9.75;2.85;;;6.30;99.90;;;;;;5330286;26;20009;-81
2024/04/20 00:43:42;;;;;;;8.20;2.17;;;6.20;99.90;;;;;;5336028;26;20012;-81
2024/04/20 00:46:08;;;;;;;5.13;1.90;;;6.20;99.90;;;;;;5332648;26;20090;-82
2024/04/20 00:48:34;;;;;;;7.45;2.10;;;6.30;99.90;;;;;;5333961;26;20021;-81
2024/04/20 00:51:07;;;;;;;7.32;1.83;;;6.20;99.90;;;;;;5329484;26;20001;-81
2024/04/20 00:53:37;;;;;;;8.05;1.98;;;6.30;99.90;;;;;;5323222;26;20023;-80
2024/04/20 00:56:06;;;;;;;4.68;2.00;;;6.20;99.90;;;;;;5333953;26;20017;-82
2024/04/20 00:58:32;;;;;;;4.97;1.73;;;6.20;99.90;;;;;;5330057;26;20012;-81
2024/04/20 01:01:04;;;;;;;3.95;1.48;;;6.30;99.90;;;;;;5331765;26;20009;-81
2024/04/20 01:03:50;;;;;;;6.25;1.55;;;6.20;99.90;;;;;;5331068;26;20017;-81
2024/04/20 01:06:23;;;;;;;5.70;1.55;;;6.10;99.90;;;;;;5334413;26;20004;-81
2024/04/20 01:08:56;;;;;;;6.35;1.90;;;6.10;99.90;;;;;;5332646;26;20055;-81
2024/04/20 01:11:31;;;;;;;6.28;1.80;;;6.10;99.90;;;;;;5326357;26;20086;-81
2024/04/20 01:14:05;;;;;;;7.30;1.45;;;6.10;99.90;;;;;;5330323;26;20088;-81
2024/04/20 01:16:34;;;;;;;7.15;1.80;;;6.10;99.90;;;;;;5332269;26;20106;-81
2024/04/20 01:18:59;;;;;;;7.57;1.80;;;6.10;99.90;;;;;;5327732;26;20049;-82
2024/04/20 01:21:26;;;;;;;8.48;1.80;;;6.10;99.90;;;;;;5333225;26;20023;-81
2024/04/20 01:24:15;;;;;;;6.85;1.70;;;6.10;99.90;;;;;;5332857;26;20375;-81
2024/04/20 01:26:41;;;;;;;5.57;1.73;;;6.10;99.90;;;;;;5331537;26;20314;-80
2024/04/20 01:29:08;;;;;;;6.43;1.80;;;6.10;99.90;;;;;;5331889;26;20008;-80
2024/04/20 01:31:34;;;;;;;6.85;2.00;;;6.00;99.90;;;;;;5329645;26;20000;-81
2024/04/20 01:33:59;;;;;;;9.75;2.58;;;6.10;99.90;;;;;;5337323;26;20053;-81
2024/04/20 01:36:26;;;;;;;9.35;2.70;;;6.10;99.90;;;;;;5334701;26;20348;-81
2024/04/20 01:38:56;;;;;;;6.68;1.92;;;6.10;99.90;;;;;;5334423;26;20345;-81
2024/04/20 01:41:27;;;;;;;8.43;2.40;;;6.10;99.90;;;;;;5331550;26;20075;-81
2024/04/20 01:44:01;;;;;;;7.18;1.98;;;6.00;99.90;;;;;;5325080;26;20648;-81
2024/04/20 01:47:18;;;;;;;8.77;2.40;;;6.10;99.90;;;;;;5327200;26;20001;-80
2024/04/20 01:50:23;;;;;;;7.55;2.40;;;6.10;99.90;;;;;;5331850;26;20001;-80
2024/04/20 01:52:50;;;;;;;8.13;2.33;;;6.10;99.90;;;;;;5322835;26;20012;-80
2024/04/20 01:55:16;;;;;;;8.75;2.33;;;6.10;99.90;;;;;;5329064;26;20001;-80
2024/04/20 01:57:52;;;;;;;6.88;2.42;;;6.10;99.90;;;;;;5325800;26;20692;-80
2024/04/20 02:00:28;;;;;;;11.38;2.60;;;6.20;99.90;;;;;;5328596;26;20469;-80
2024/04/20 02:03:21;;;;;;;7.20;2.30;;;6.20;99.90;;;;;;5320274;26;20021;-80
2024/04/20 02:06:29;;;;;;;6.68;2.53;;;6.20;99.90;;;;;;5333732;26;20271;-80
2024/04/20 02:09:30;;;;;;;9.25;2.97;;;6.20;99.90;;;;;;5334285;26;21697;-80
2024/04/20 02:12:04;;;;;;;7.20;3.25;;;6.30;99.90;;;;;;5329716;26;20033;-80
2024/04/20 02:14:39;;;;;;;5.70;2.28;;;6.20;99.90;;;;;;5333260;26;20033;-80
2024/04/20 02:17:08;;;;;;;6.35;2.15;;;6.20;99.90;;;;;;5341266;26;20536;-80
2024/04/20 02:20:26;;;;;;;7.90;2.75;;;6.20;99.90;;;;;;5325693;26;20001;-80
2024/04/20 02:23:29;;;;;;;11.85;3.20;;;6.20;99.90;;;;;;5330233;26;20008;-80
2024/04/20 02:26:00;;;;;;;7.78;2.40;;;6.20;99.90;;;;;;5336478;26;20009;-80
2024/04/20 02:28:28;;;;;;;6.57;2.30;;;6.20;99.90;;;;;;5342357;26;20478;-80
2024/04/20 02:31:23;;;;;;;7.50;2.58;;;6.20;99.90;;;;;;5394415;26;20005;-80
2024/04/20 02:34:21;;;;;;;5.65;2.13;;;6.20;99.90;;;;;;5312139;26;20009;-80
2024/04/20 02:37:10;;;;;;;5.38;2.15;;;6.10;99.90;;;;;;5345968;26;20008;-80
2024/04/20 02:39:48;;;;;;;9.85;2.42;;;6.10;99.90;;;;;;5333463;26;20005;-80
2024/04/20 02:42:20;;;;;;;6.18;2.30;;;6.10;99.90;;;;;;5398072;26;20015;-80
2024/04/20 02:44:55;;;;;;;7.35;2.65;;;6.10;99.90;;;;;;5331225;26;20024;-80
2024/04/20 02:47:21;;;;;;;8.32;2.65;;;6.10;99.90;;;;;;5337165;26;20521;-80
2024/04/20 02:50:26;;;;;;;;;;;;;;;;;;;;;
2024/04/20 02:53:15;;;;;;;8.18;2.50;;;6.10;99.90;;;;;;5348652;26;20008;-80
2024/04/20 02:55:41;;;;;;;8.40;2.40;;;6.10;99.90;;;;;;5341668;26;20009;-80
2024/04/20 02:58:29;;;;;;;7.60;2.35;;;6.10;99.90;;;;;;5322820;26;20009;-80
2024/04/20 03:01:09;;;;;;;9.88;2.50;;;6.10;99.90;;;;;;5332648;26;20001;-80
2024/04/20 03:03:39;;;;;;;7.18;2.20;;;6.10;99.90;;;;;;5340661;26;20005;-80
2024/04/20 03:06:05;;;;;;;7.97;2.22;;;6.10;99.90;;;;;;5307105;26;20068;-80
2024/04/20 03:08:51;;;;;;;6.28;2.20;;;6.10;99.90;;;;;;5312747;26;20005;-80
2024/04/20 03:11:24;;;;;;;10.50;1.88;;;6.10;99.90;;;;;;5308545;26;20044;-80
2024/04/20 03:13:55;;;;;;;7.72;2.03;;;6.10;99.90;;;;;;5307647;26;20078;-80
2024/04/20 03:16:21;;;;;;;6.45;1.60;;;6.10;99.90;;;;;;5336293;26;20005;-80
2024/04/20 03:18:50;;;;;;;4.50;1.50;;;6.10;99.90;;;;;;5342236;26;20014;-80
2024/04/20 03:21:16;;;;;;;7.93;1.67;;;6.10;99.90;;;;;;5328962;26;20510;-80
2024/04/20 03:23:42;;;;;;;6.35;1.33;;;6.10;99.90;;;;;;5304138;26;20006;-80
2024/04/20 03:26:28;;;;;;;6.03;1.40;;;6.10;99.90;;;;;;5319651;26;20005;-80
2024/04/20 03:28:57;;;;;;;4.90;1.15;;;6.10;99.90;;;;;;5310982;26;20013;-81
2024/04/20 03:31:23;;;;;;;6.90;1.23;;;6.10;99.90;;;;;;5309593;26;20011;-79
2024/04/20 03:34:08;;;;;;;4.57;1.10;;;6.10;99.90;;;;;;5325450;26;20001;-80
2024/04/20 03:36:34;;;;;;;5.72;1.30;;;6.00;99.90;;;;;;5330876;26;20049;-80
2024/04/20 03:39:26;;;;;;;7.50;1.52;;;5.90;99.90;;;;;;5328845;26;20005;-80
2024/04/20 03:41:52;;;;;;;4.95;1.20;;;6.00;99.90;;;;;;5341029;26;20368;-80
2024/04/20 03:44:18;;;;;;;5.75;1.40;;;6.00;99.90;;;;;;5333932;26;20009;-80
2024/04/20 03:46:46;;;;;;;5.25;1.60;;;6.00;99.90;;;;;;5326404;26;20423;-80
2024/04/20 03:49:14;;;;;;;6.30;1.33;;;6.10;99.90;;;;;;5328408;26;19997;-80
2024/04/20 03:51:43;;;;;;;7.20;1.40;;;6.00;99.90;;;;;;5318933;26;20043;-80
2024/04/20 03:54:13;;;;;;;4.60;1.52;;;5.90;99.90;;;;;;5344504;26;20104;-80
2024/04/20 03:56:42;;;;;;;4.45;1.50;;;5.90;99.90;;;;;;5360365;26;20005;-80
2024/04/20 03:59:27;;;;;;;3.00;1.35;;;5.90;99.90;;;;;;5306359;26;20013;-80
2024/04/20 04:02:26;;;;;;;6.03;1.60;;;5.90;99.90;;;;;;5299151;26;20005;-80
2024/04/20 04:05:22;;;;;;;5.88;1.60;;;5.90;99.90;;;;;;5326820;26;20016;-80
2024/04/20 04:08:08;;;;;;;9.75;1.50;;;5.90;99.90;;;;;;5305965;26;20006;-80
2024/04/20 04:10:54;;;;;;;6.93;1.50;;;5.90;99.90;;;;;;5341908;26;20014;-80
2024/04/20 04:13:40;;;;;;;3.80;1.00;;;5.90;99.90;;;;;;5326597;26;20012;-80
2024/04/20 04:16:32;;;;;;;5.03;1.15;;;5.90;99.90;;;;;;5305528;26;20014;-80
2024/04/20 04:19:18;;;;;;;7.88;1.70;;;5.90;99.90;;;;;;5351508;26;20376;-80
2024/04/20 04:22:04;;;;;;;4.40;1.17;;;5.90;99.90;;;;;;5332748;26;20413;-80
2024/04/20 04:24:53;;;;;;;3.38;1.23;;;5.80;99.90;;;;;;5337626;26;20513;-80
2024/04/20 04:27:42;;;;;;;6.60;1.33;;;5.90;99.90;;;;;;5323002;26;20047;-79
2024/04/20 04:30:32;;;;;;;6.03;1.10;;;5.90;99.90;;;;;;5368780;26;20009;-79
2024/04/20 04:33:21;;;;;;;4.45;1.20;;;5.80;99.90;;;;;;5350934;26;21445;-80
2024/04/20 04:37:01;;;;;;;5.55;1.17;;;5.90;99.90;;;;;;5321753;26;20008;-80
2024/04/20 04:40:13;;;;;;;;;;;5.80;99.90;;;;;;5308070;26;20005;-81
2024/04/20 04:43:12;;;;;;;4.38;1.10;;;5.80;99.90;;;;;;5378872;26;20347;-81
2024/04/20 04:46:11;;;;;;;4.10;1.20;;;5.80;99.90;;;;;;5311220;26;20005;-81
2024/04/20 04:49:01;;;;;;;4.80;1.20;;;5.80;99.90;;;;;;5308090;26;21365;-80
2024/04/20 04:51:59;;;;;;;4.63;1.77;;;5.80;99.90;;;;;;5366603;26;20017;-81
2024/04/20 04:54:59;;;;;;;7.70;2.63;;;5.80;99.90;;;;;;5319328;26;20005;-81
2024/04/20 04:57:48;;;;;;;3.42;0.80;;;5.70;99.90;;;;;;5306610;26;20018;-80
2024/04/20 05:00:43;;;;;;;7.15;1.13;;;5.80;99.90;;;;;;5333062;26;20004;-83
2024/04/20 05:03:33;;;;;;;4.40;0.88;;;5.80;99.90;;;;;;5307129;26;20005;-81
2024/04/20 05:06:28;;;;;;;6.10;0.90;;;5.80;99.90;;;;;;5347214;26;20016;-81
2024/04/20 05:09:20;;;;;;;4.72;0.90;;;5.70;99.90;;;;;;5362851;26;20005;-81
2024/04/20 05:12:07;;;;;;;3.92;0.93;;;5.70;99.90;;;;;;5374931;26;20078;-81
2024/04/20 05:14:56;;;;;;;6.88;1.00;;;5.70;99.90;;;;;;5314829;26;20005;-82
2024/04/20 05:17:53;;;;;;;3.97;0.88;;;5.70;99.90;;;;;;5339131;26;20005;-80
2024/04/20 05:20:48;;;;;;;4.03;0.70;;;5.70;99.90;;;;;;5326290;26;20429;-80
2024/04/20 05:23:45;;;;;;;4.45;1.13;;;5.70;99.90;;;;;;5354520;26;20016;-81
2024/04/20 05:26:34;;;;;;;4.57;1.00;;;5.70;99.90;;;;;;5319744;26;20015;-80
2024/04/20 05:29:20;;;;;;;3.50;1.02;;;5.70;99.90;;;;;;5325496;26;20016;-80
2024/04/20 05:32:06;;;;;;;3.35;0.90;;;5.70;99.90;;;;;;5308501;26;20017;-81
2024/04/20 05:34:55;;;;;;;4.95;1.10;;;5.70;99.90;;;;;;5331766;26;20056;-81
2024/04/20 05:37:41;;;;;;;3.95;1.10;;;5.70;99.90;;;;;;5336732;26;20506;-82
2024/04/20 05:40:27;;;;;;;4.32;0.80;;;5.70;99.90;;;;;;5307065;26;20013;-82
2024/04/20 05:43:13;;;;;;;6.00;1.20;;;5.70;99.90;;;;;;5325615;26;20016;-82
2024/04/20 05:46:02;;;;;;;4.80;1.00;;;5.70;99.90;;;;;;5331065;26;20353;-81
2024/04/20 05:48:51;;;;;;;6.78;1.20;;;5.70;99.90;;;;;;5371829;26;20005;-82
2024/04/20 05:51:37;;;;;;;6.90;1.60;;;5.80;99.90;;;;;;5356870;26;20173;-81
2024/04/20 05:54:23;;;;;;;7.88;1.58;;;5.80;99.90;;;;;;5331247;26;20027;-81
2024/04/20 05:57:09;;;;;;;11.82;2.38;;;5.80;99.90;;;;;;5330579;26;20020;-80
2024/04/20 05:59:58;;;;;;;7.63;1.67;;;5.90;99.90;;;;;;5331613;26;20075;-81
2024/04/20 06:02:44;;;;;;;7.45;2.15;;;5.90;99.90;;;;;;5307705;26;20005;-80
2024/04/20 06:05:30;;;;;;;6.97;2.10;;;5.90;99.90;;;;;;5304688;26;20428;-81
2024/04/20 06:08:16;;;;;;;10.57;2.90;;;6.00;99.90;;;;;;5335759;26;20036;-81
2024/04/20 06:11:02;;;;;;;9.80;1.70;;;6.00;99.90;;;;;;5338432;26;20546;-81
2024/04/20 06:13:48;;;;;;;7.45;1.55;;;6.00;99.90;;;;;;5329771;26;20005;-82
2024/04/20 06:16:34;;;;;;;7.35;1.58;;;6.00;99.90;;;;;;5329620;26;20005;-83
2024/04/20 06:19:20;;;;;;;6.38;1.45;;;5.90;99.90;;;;;;5307312;26;20005;-83
2024/04/20 06:22:06;;;;;;;8.43;1.80;;;5.90;99.90;;;;;;5330153;26;20012;-83
2024/04/20 06:24:59;;;;;;;10.80;2.13;;;5.80;99.90;;;;;;5333699;26;20398;-81
2024/04/20 06:27:45;;;;;;;12.95;2.30;;;5.70;99.90;;;;;;5333844;26;20058;-83
2024/04/20 06:30:31;;;;;;;9.43;2.35;;;5.70;99.90;;;;;;5307377;26;20037;-81
2024/04/20 06:33:17;;;;;;;8.15;1.92;;;5.70;99.90;;;;;;5302007;26;20512;-83
2024/04/20 06:36:21;;;;;;;;;;;;;;;;;;;;;
2024/04/20 06:39:25;;;;;;;6.30;1.88;;;5.70;99.90;;;;;;5332633;26;20005;-82
2024/04/20 06:42:11;;;;;;;10.25;1.90;;;5.70;99.90;;;;;;5333975;26;20005;-82
2024/04/20 06:45:01;;;;;;;8.02;1.70;;;5.70;99.90;;;;;;5332376;26;20005;-81
2024/04/20 06:48:06;;;;;;;7.85;1.90;;;5.70;99.90;;;;;;5304224;26;20418;-82
2024/04/20 06:50:57;;;;;;;8.65;1.73;;;5.80;99.90;;;;;;5329599;26;20011;-81
2024/04/20 06:53:59;;;;;;;7.78;1.90;;;5.80;99.90;;;;;;5332640;26;20016;-81
2024/04/20 06:56:45;;;;;;;7.07;1.70;;;5.90;99.90;;;;;;5332196;26;20051;-82
2024/04/20 06:59:31;;;;;;;9.88;2.10;;;5.90;99.90;;;;;;5329969;26;20009;-81
2024/04/20 07:02:24;;;;;;;5.00;1.27;;;5.80;99.90;;;;;;5333664;26;20074;-81
2024/04/20 07:05:11;;;;;;;5.30;1.67;;;5.80;99.90;;;;;;5332363;26;20013;-82
2024/04/20 07:07:59;;;;;;;7.13;1.58;;;5.80;99.90;;;;;;5309212;26;20002;-81
2024/04/20 07:10:55;;;;;;;9.55;2.30;;;5.80;99.90;;;;;;5306768;26;20020;-82
2024/04/20 07:13:42;;;;;;;8.45;1.70;;;5.90;99.90;;;;;;5310034;26;20005;-84
2024/04/20 07:16:27;;;;;;;8.93;1.88;;;5.90;99.90;;;;;;5306619;26;20016;-81
2024/04/20 07:19:14;;;;;;;8.02;1.30;;;5.90;99.90;;;;;;5334904;26;20017;-81
2024/04/20 07:22:00;;;;;;;7.28;1.73;;;5.90;99.90;;;;;;5307350;26;20021;-82
2024/04/20 07:24:46;;;;;;;7.32;1.65;;;5.90;99.90;;;;;;5308699;26;20078;-81
2024/04/20 07:27:31;;;;;;;8.00;1.88;;;5.90;99.90;;;;;;5336794;26;20009;-82
2024/04/20 07:30:21;;;;;;;5.65;1.40;;;6.00;99.90;;;;;;5334057;26;20001;-80
2024/04/20 07:33:07;;;;;;;8.73;1.60;;;6.10;99.90;;;;;;5326584;26;20021;-81
2024/04/20 07:35:58;;;;;;;7.25;1.35;;;6.20;99.90;;;;;;5313776;26;20487;-80
2024/04/20 07:42:16;;;;;;;7.97;1.77;;;6.50;99.90;;;;;;5325172;26;20335;-80
2024/04/20 07:45:13;;;;;;;6.57;1.45;;;6.70;99.90;;;;;;5309122;26;20019;-79
2024/04/20 07:48:00;;;;;;;8.65;1.38;;;6.80;99.90;;;;;;5327911;26;20017;-80
2024/04/20 07:51:14;;;;;;;6.57;1.20;;;7.00;99.90;;;;;;5307475;26;20447;-80
2024/04/20 07:54:29;;;;;;;8.45;1.58;;;7.20;99.90;;;;;;5313119;26;20008;-80
2024/04/20 07:57:37;;;;;;;6.25;1.83;;;7.50;99.90;;;;;;5335064;26;20016;-80
2024/04/20 08:00:24;;;;;;;7.18;1.40;;;7.60;99.90;;;;;;5353858;26;20001;-80
2024/04/20 08:03:13;;;;;;;9.98;2.15;;;7.80;99.90;;;;;;5313039;26;20020;-79
2024/04/20 08:05:58;;;;;;;11.20;2.40;;;8.00;99.90;;;;;;5315380;26;20109;-80
2024/04/20 08:08:44;;;;;;;7.50;1.58;;;8.30;99.90;;;;;;5310255;26;20424;-79
2024/04/20 08:11:33;;;;;;;6.75;1.52;;;8.40;99.90;;;;;;5331498;26;20489;-79
2024/04/20 08:14:19;;;;;;;6.38;1.77;;;8.30;99.90;;;;;;5310495;26;20020;-79
2024/04/20 08:17:05;;;;;;;10.65;1.65;;;8.30;99.90;;;;;;5332870;26;20087;-79
2024/04/20 08:19:51;;;;;;;9.82;1.95;;;8.30;99.90;;;;;;5311215;26;20339;-78
2024/04/20 08:22:38;;;;;;;6.57;1.50;;;8.40;99.90;;;;;;5311869;26;20456;-80
2024/04/20 08:25:25;;;;;;;6.22;1.60;;;8.50;99.90;;;;;;5307047;26;20077;-78
2024/04/20 08:28:10;;;;;;;5.55;1.48;;;8.80;99.90;;;;;;5330417;26;20001;-79
2024/04/20 08:30:57;;;;;;;8.45;1.83;;;9.00;99.90;;;;;;5331754;26;20016;-79
2024/04/20 08:33:43;;;;;;;4.57;1.02;;;9.10;99.90;;;;;;5334015;26;20084;-79
2024/04/20 08:36:29;;;;;;;8.70;1.58;;;9.00;99.90;;;;;;5334048;26;20012;-78
2024/04/20 08:39:15;;;;;;;7.60;1.77;;;9.00;99.90;;;;;;5309478;26;20056;-78
2024/04/20 08:42:21;;;;;;;7.80;1.90;;;9.00;99.90;;;;;;5307151;26;20053;-78
2024/04/20 08:45:14;;;;;;;7.22;1.60;;;9.30;99.90;;;;;;5309769;26;20013;-79
2024/04/20 08:48:01;;;;;;;5.85;1.75;;;9.50;99.90;;;;;;5307322;26;20037;-80
2024/04/20 08:50:48;;;;;;;6.63;1.13;;;9.60;99.90;;;;;;5329841;26;20044;-79
2024/04/20 08:53:34;;;;;;;5.32;1.10;;;9.60;99.90;;;;;;5305013;26;20005;-78
2024/04/20 08:56:24;;;;;;;4.30;0.80;;;9.70;99.90;;;;;;5356662;26;20001;-79
2024/04/20 08:58:50;;;;;;;4.05;1.00;;;9.70;99.90;;;;;;5336158;26;20009;-80
2024/04/20 09:01:17;;;;;;;3.92;0.70;;;9.40;99.90;;;;;;5330414;26;20056;-81
2024/04/20 09:03:44;;;;;;;4.10;0.82;;;9.10;99.90;;;;;;5332150;26;20005;-80
2024/04/20 09:06:30;;;;;;;7.25;1.02;;;8.90;99.90;;;;;;5335161;26;20005;-80
2024/04/20 09:09:18;;;;;;;5.80;1.02;;;8.70;99.90;;;;;;5309674;26;20008;-79
2024/04/20 09:11:44;;;;;;;4.25;0.90;;;8.70;99.90;;;;;;5329356;26;20001;-80
2024/04/20 09:14:30;;;;;;;7.88;1.10;;;8.70;99.90;;;;;;5334793;26;20020;-79
2024/04/20 09:16:56;;;;;;;5.07;0.90;;;8.80;99.90;;;;;;5325562;26;19997;-79
2024/04/20 09:19:42;;;;;;;4.90;1.20;;;9.00;99.90;;;;;;5337326;26;20005;-79
2024/04/20 09:22:28;;;;;;;5.75;1.38;;;9.20;99.90;;;;;;5327912;26;20019;-78
2024/04/20 09:25:19;;;;;;;3.53;1.00;;;9.40;99.90;;;;;;5305621;26;20005;-78
2024/04/20 09:28:09;;;;;;;7.28;1.20;;;9.60;99.90;;;;;;5305797;26;20439;-78
2024/04/20 09:30:55;;;;;;;5.55;1.35;;;9.80;99.90;;;;;;5382458;26;20019;-78
2024/04/20 09:33:50;;;;;;;6.00;1.40;;;9.90;99.90;;;;;;5333532;26;20086;-79
2024/04/20 09:36:37;;;;;;;5.72;1.35;;;10.00;99.90;;;;;;5335103;26;20044;-77
2024/04/20 09:39:23;;;;;;;7.55;1.65;;;10.00;99.90;;;;;;5337704;26;20008;-79
2024/04/20 09:42:10;;;;;;;8.10;1.70;;;10.00;99.90;;;;;;5314336;26;20002;-78
2024/04/20 09:44:56;;;;;;;7.47;1.70;;;9.90;99.90;;;;;;5333258;26;20476;-78
2024/04/20 09:47:43;;;;;;;5.65;1.25;;;9.90;99.90;;;;;;5308393;26;20001;-78
2024/04/20 09:50:29;;;;;;;5.10;1.55;;;10.10;99.90;;;;;;5327470;26;20001;-78
2024/04/20 09:53:28;;;;;;;5.05;0.90;;;10.20;99.90;;;;;;5331814;26;20005;-80
2024/04/20 09:56:17;;;;;;;5.35;1.05;;;10.10;99.90;;;;;;5331522;26;20008;-79
2024/04/20 09:59:07;;;;;;;3.33;0.60;;;9.90;99.90;;;;;;5309428;26;20001;-78
2024/04/20 10:01:54;;;;;;;5.43;0.77;;;9.90;99.90;;;;;;5327472;26;20080;-77
2024/04/20 10:04:41;;;;;;;3.65;0.70;;;10.10;99.90;;;;;;5309425;26;20351;-79
2024/04/20 10:07:32;;;;;;;3.22;0.52;;;10.30;99.90;;;;;;5332899;26;20439;-79
2024/04/20 10:10:22;;;;;;;2.45;0.63;;;10.60;99.90;;;;;;5331456;26;20037;-79
2024/04/20 10:13:13;;;;;;;6.10;1.15;;;10.80;99.90;;;;;;5308085;26;20013;-79
2024/04/20 10:16:00;;;;;;;5.63;1.25;;;10.90;99.90;;;;;;5330560;26;20009;-78
2024/04/20 10:18:47;;;;;;;5.80;1.30;;;11.00;99.90;;;;;;5329524;26;20013;-78
2024/04/20 10:21:36;;;;;;;5.38;1.02;;;11.00;99.90;;;;;;5333704;26;20015;-80
2024/04/20 10:24:22;;;;;;;5.45;1.13;;;11.00;99.90;;;;;;5375965;26;20016;-79
2024/04/20 10:27:08;;;;;;;3.60;0.70;;;11.10;99.90;;;;;;5333640;26;19997;-78
2024/04/20 10:30:08;;;;;;;4.97;0.85;;;11.20;99.90;;;;;;5304809;26;20081;-78
2024/04/20 10:33:07;;;;;;;4.78;1.17;;;11.30;99.90;;;;;;5332342;26;20013;-79
2024/04/20 10:35:58;;;;;;;3.70;1.42;;;11.30;99.90;;;;;;5330320;26;20015;-78
2024/04/20 10:38:44;;;;;;;3.75;0.70;;;11.50;99.90;;;;;;5380801;26;20020;-78
2024/04/20 10:41:40;;;;;;;3.90;0.75;;;11.60;99.90;;;;;;5330411;26;20458;-79
2024/04/20 10:44:28;;;;;;;3.30;0.88;;;11.60;99.90;;;;;;5330796;26;20009;-80
2024/04/20 10:47:21;;;;;;;2.53;0.85;;;11.40;99.90;;;;;;5307836;26;20019;-78
2024/04/20 10:50:10;;;;;;;3.15;0.60;;;11.20;99.90;;;;;;5332034;26;20009;-79
2024/04/20 10:53:06;;;;;;;2.47;0.63;;;10.80;99.90;;;;;;5302677;26;20006;-80
2024/04/20 10:56:02;;;;;;;2.28;0.45;;;10.40;99.90;;;;;;5337909;26;20231;-80
2024/04/20 10:59:20;;;;;;;2.67;0.40;;;10.20;99.90;;;;;;5309572;26;20017;-81
2024/04/20 11:01:50;;;;;;;2.50;0.68;;;10.00;99.90;;;;;;5277662;26;20016;-79
2024/04/20 11:04:21;;;;;;;2.65;0.60;;;10.00;99.90;;;;;;5337036;26;20004;-80
2024/04/20 11:07:02;;;;;;;2.65;0.50;;;10.20;99.90;;;;;;5333500;26;20006;-80
2024/04/20 11:09:48;;;;;;;3.22;0.60;;;10.30;99.90;;;;;;5310088;26;20459;-80
2024/04/20 11:12:34;;;;;;;4.05;1.20;;;10.60;99.90;;;;;;5334434;26;20005;-78
2024/04/20 11:15:23;;;;;;;3.95;0.55;;;10.90;99.90;;;;;;5329718;26;20015;-80
2024/04/20 11:18:09;;;;;;;4.38;0.80;;;11.10;99.90;;;;;;5316917;26;20356;-80
2024/04/20 11:21:00;;;;;;;4.45;0.80;;;11.40;99.90;;;;;;5306752;26;20041;-80
2024/04/20 11:23:58;;;;;;;3.28;0.95;;;11.70;99.90;;;;;;5335799;26;20086;-80
2024/04/20 11:26:44;;;;;;;4.85;0.95;;;12.00;99.90;;;;;;5327142;26;20012;-80
2024/04/20 11:29:31;;;;;;;5.57;1.15;;;12.20;99.90;;;;;;5386783;26;20016;-81
2024/04/20 11:32:30;;;;;;;5.32;1.05;;;12.40;99.90;;;;;;5311998;26;20448;-81
2024/04/20 11:35:16;;;;;;;4.78;1.13;;;12.30;99.90;;;;;;5334569;26;20459;-81
2024/04/20 11:38:08;;;;;;;5.07;0.90;;;12.30;99.90;;;;;;5358787;26;20016;-81
2024/04/20 11:40:56;;;;;;;5.22;1.00;;;12.30;99.90;;;;;;5356582;26;20000;-81
2024/04/20 11:43:42;;;;;;;4.43;1.10;;;12.40;99.90;;;;;;5335726;26;20006;-78
2024/04/20 11:46:28;;;;;;;4.43;1.00;;;12.60;99.90;;;;;;5310656;26;20044;-81
2024/04/20 11:49:24;;;;;;;3.45;0.98;;;12.60;99.90;;;;;;5296515;26;20006;-82
2024/04/20 11:55:29;;;;;;;3.67;0.70;;;12.30;99.90;;;;;;5333730;26;20021;-81
2024/04/20 11:57:56;;;;;;;3.00;0.60;;;11.90;99.90;;;;;;5334228;26;20000;-81
2024/04/20 12:00:25;;;;;;;2.63;0.70;;;11.40;99.90;;;;;;5331330;26;20017;-83
2024/04/20 12:02:51;;;;;;;2.42;0.70;;;11.20;99.90;;;;;;5365406;26;20001;-81
2024/04/20 12:05:20;;;;;;;5.10;0.93;;;11.00;99.90;;;;;;5332710;26;20013;-81
2024/04/20 12:07:49;;;;;;;3.70;0.82;;;10.90;99.90;;;;;;5333310;26;20001;-81
2024/04/20 12:10:19;;;;;;;3.58;0.80;;;10.80;99.90;;;;;;5330070;26;20016;-80
2024/04/20 12:12:45;;;;;;;4.53;1.15;;;10.50;99.90;;;;;;5389059;26;20078;-81
2024/04/20 12:15:10;;;;;;;5.25;1.08;;;10.40;99.90;;;;;;5331907;26;20008;-81
2024/04/20 12:17:36;;;;;;;3.67;0.70;;;10.40;99.90;;;;;;5342545;26;20017;-81
2024/04/20 12:20:02;;;;;;;4.82;0.90;;;10.60;99.90;;;;;;5332714;26;20009;-81
2024/04/20 12:22:30;;;;;;;5.60;1.00;;;10.90;99.90;;;;;;5329936;26;20005;-80
2024/04/20 12:24:59;;;;;;;5.10;1.08;;;11.20;99.90;;;;;;5327879;26;20019;-79
2024/04/20 12:27:25;;;;;;;5.00;1.20;;;11.40;99.90;;;;;;5336069;26;20009;-81
2024/04/20 12:29:51;;;;;;;3.28;0.85;;;11.60;99.90;;;;;;5331725;26;20023;-82
2024/04/20 12:32:20;;;;;;;5.93;0.85;;;11.70;99.90;;;;;;5335493;26;20001;-81
2024/04/20 12:34:50;;;;;;;6.28;1.13;;;11.60;99.90;;;;;;5392305;26;20009;-81
2024/04/20 12:37:19;;;;;;;8.13;2.50;;;11.60;99.90;;;;;;5336290;26;20379;-81
2024/04/20 12:39:45;;;;;;;4.93;1.50;;;11.70;99.90;;;;;;5331392;26;20001;-81
2024/04/20 12:42:11;;;;;;;9.82;1.30;;;11.70;99.90;;;;;;5337448;26;20454;-81
2024/04/20 12:44:43;;;;;;;3.92;0.75;;;11.90;99.90;;;;;;5370110;26;19995;-81
2024/04/20 12:47:11;;;;;;;9.50;1.38;;;12.10;99.90;;;;;;5361160;26;20386;-81
2024/04/20 12:49:37;;;;;;;5.95;1.95;;;12.30;99.90;;;;;;5366840;26;20032;-81
2024/04/20 12:52:03;;;;;;;5.25;1.08;;;12.50;99.90;;;;;;5336322;26;20406;-81
2024/04/20 12:54:29;;;;;;;4.25;0.80;;;12.70;99.90;;;;;;5370555;26;20012;-81
2024/04/20 12:56:55;;;;;;;9.35;1.83;;;12.90;99.90;;;;;;5338067;26;20041;-79
2024/04/20 12:59:21;;;;;;;3.80;1.08;;;13.20;99.90;;;;;;5364848;26;20010;-79
2024/04/20 13:01:48;;;;;;;4.93;1.00;;;13.30;99.90;;;;;;5362096;26;20004;-79
2024/04/20 13:04:14;;;;;;;3.67;0.70;;;13.10;99.90;;;;;;5368616;26;20016;-82
2024/04/20 13:06:52;;;;;;;4.80;1.23;;;12.80;99.90;;;;;;5369627;26;20075;-81
2024/04/20 13:13:14;;;;;;;4.72;1.00;;;11.80;99.90;;;;;;5299540;26;20017;-81
2024/04/20 13:16:23;;;;;;;4.15;1.02;;;11.30;99.90;;;;;;5337789;26;20015;-81
2024/04/20 13:19:33;;;;;;;3.35;0.57;;;11.00;99.90;;;;;;5162517;27;20389;-81
2024/04/20 13:22:24;;;;;;;4.43;0.90;;;10.60;99.90;;;;;;5116546;27;20010;-81
2024/04/20 13:25:51;;;;;;;4.38;1.00;;;10.50;99.90;;;;;;5105964;27;20504;-81
2024/04/20 13:29:23;;;;;;;7.82;1.38;;;10.50;99.90;;;;;;5231683;27;20659;-81
2024/04/20 13:32:15;;;;;;;4.13;1.30;;;10.50;99.90;;;;;;5359641;26;20013;-81
2024/04/20 13:35:03;;;;;;;6.28;1.52;;;10.70;99.90;;;;;;5334179;26;20005;-81
2024/04/20 13:41:57;;;;;;;6.45;1.60;;;11.10;99.90;;;;;;5300582;26;20113;-80
2024/04/20 13:44:43;;;;;;;6.80;1.42;;;11.50;99.90;;;;;;5265966;27;20014;-81
2024/04/20 13:47:31;;;;;;;6.28;1.50;;;11.60;99.90;;;;;;5263020;26;20033;-79
2024/04/20 13:50:06;;;;;;;3.90;0.68;;;11.80;99.90;;;;;;5300059;26;20100;-82
2024/04/20 13:52:32;;;;;;;4.60;1.20;;;11.80;99.90;;;;;;5296934;26;20035;-81
2024/04/20 13:55:08;;;;;;;5.30;1.00;;;11.80;99.90;;;;;;5270254;27;20016;-81
2024/04/20 13:57:36;;;;;;;5.55;0.95;;;11.90;99.90;;;;;;5328545;26;20055;-81
2024/04/20 14:00:53;;;;;;;4.03;1.00;;;11.90;99.90;;;;;;5328569;26;20007;-81
2024/04/20 14:03:38;;;;;;;5.38;1.38;;;11.90;99.90;;;;;;5282519;27;20021;-81
2024/04/20 14:06:32;;;;;;;6.80;1.55;;;12.10;99.90;;;;;;5289065;27;20519;-81
2024/04/20 14:09:02;;;;;;;6.85;1.15;;;12.30;99.90;;;;;;5265929;27;20084;-82
2024/04/20 14:11:31;;;;;;;5.85;1.25;;;12.30;99.90;;;;;;5263447;27;20021;-81
2024/04/20 14:13:56;;;;;;;6.30;1.45;;;12.20;99.90;;;;;;5263098;27;20006;-80
2024/04/20 14:16:23;;;;;;;7.32;1.33;;;12.00;99.90;;;;;;5262964;27;20002;-81
2024/04/20 14:18:52;;;;;;;7.47;1.55;;;11.80;99.90;;;;;;5262870;27;20003;-81
2024/04/20 14:21:18;;;;;;;9.68;1.75;;;11.50;99.90;;;;;;5286725;26;20001;-79
2024/04/20 14:23:45;;;;;;;8.82;2.20;;;11.20;99.90;;;;;;5334704;26;20474;-85
2024/04/20 14:26:10;;;;;;;8.77;1.90;;;11.00;99.90;;;;;;5333274;26;20016;-81
2024/04/20 14:28:37;;;;;;;6.53;1.48;;;10.80;99.90;;;;;;5330351;26;20009;-80
2024/04/20 14:31:11;;;;;;;5.95;1.40;;;10.60;99.90;;;;;;5333450;26;19997;-81
2024/04/20 14:33:38;;;;;;;5.82;1.65;;;10.40;99.90;;;;;;5331266;26;20024;-81
2024/04/20 14:36:16;;;;;;;4.53;0.63;;;10.10;99.90;;;;;;5332620;26;20009;-80
2024/04/20 14:38:43;;;;;;;6.28;1.20;;;10.00;99.90;;;;;;5330198;26;20381;-81
2024/04/20 14:41:09;;;;;;;5.13;1.17;;;10.00;99.90;;;;;;5358278;26;20074;-80
2024/04/20 14:43:35;;;;;;;4.90;1.23;;;10.10;99.90;;;;;;5330799;26;21914;-80
2024/04/20 14:46:01;;;;;;;3.35;0.65;;;10.20;99.90;;;;;;5332105;26;20008;-80